sensor_id;sensor_type;location;lat;lon;timestamp;P1;durP1;ratioP1;P2;durP2;ratioP2
29206;SDS011;16247;50.840;4.382;2023-11-21T00:01:18;40.40;;;19.80;;
29206;SDS011;16247;50.840;4.382;2023-11-21T00:03:44;38.70;;;18.80;;
29206;SDS011;16247;50.840;4.382;2023-11-21T00:06:17;41.50;;;20.17;;
29206;SDS011;16247;50.840;4.382;2023-11-21T00:08:45;42.35;;;21.63;;
29206;SDS011;16247;50.840;4.382;2023-11-21T00:11:11;39.17;;;19.60;;
29206;SDS011;16247;50.840;4.382;2023-11-21T00:13:38;39.03;;;20.25;;
29206;SDS011;16247;50.840;4.382;2023-11-21T00:16:05;38.43;;;20.17;;
29206;SDS011;16247;50.840;4.382;2023-11-21T00:23:29;39.50;;;18.50;;
29206;SDS011;16247;50.840;4.382;2023-11-21T00:26:12;37.25;;;19.33;;
29206;SDS011;16247;50.840;4.382;2023-11-21T00:28:45;36.85;;;19.13;;
29206;SDS011;16247;50.840;4.382;2023-11-21T00:31:10;38.67;;;20.15;;
29206;SDS011;16247;50.840;4.382;2023-11-21T00:36:07;37.22;;;19.40;;
29206;SDS011;16247;50.840;4.382;2023-11-21T00:38:38;40.97;;;22.10;;
29206;SDS011;16247;50.840;4.382;2023-11-21T00:41:12;43.35;;;21.48;;
29206;SDS011;16247;50.840;4.382;2023-11-21T00:43:44;44.95;;;22.33;;
29206;SDS011;16247;50.840;4.382;2023-11-21T00:49:06;38.75;;;20.08;;
29206;SDS011;16247;50.840;4.382;2023-11-21T00:51:35;48.83;;;22.25;;
29206;SDS011;16247;50.840;4.382;2023-11-21T00:57:15;43.88;;;21.45;;
29206;SDS011;16247;50.840;4.382;2023-11-21T00:59:59;38.38;;;21.33;;
29206;SDS011;16247;50.840;4.382;2023-11-21T01:02:47;41.88;;;21.52;;
29206;SDS011;16247;50.840;4.382;2023-11-21T01:05:15;36.15;;;19.83;;
29206;SDS011;16247;50.840;4.382;2023-11-21T01:07:42;40.72;;;21.95;;
29206;SDS011;16247;50.840;4.382;2023-11-21T01:10:13;37.85;;;19.33;;
29206;SDS011;16247;50.840;4.382;2023-11-21T01:12:47;37.63;;;20.30;;
29206;SDS011;16247;50.840;4.382;2023-11-21T01:15:31;42.28;;;21.42;;
29206;SDS011;16247;50.840;4.382;2023-11-21T01:18:08;46.53;;;24.08;;
29206;SDS011;16247;50.840;4.382;2023-11-21T01:20:35;51.72;;;29.02;;
29206;SDS011;16247;50.840;4.382;2023-11-21T01:23:03;46.03;;;26.00;;
29206;SDS011;16247;50.840;4.382;2023-11-21T01:25:29;44.95;;;24.73;;
29206;SDS011;16247;50.840;4.382;2023-11-21T01:27:56;44.53;;;22.70;;
29206;SDS011;16247;50.840;4.382;2023-11-21T01:30:24;41.08;;;22.05;;
29206;SDS011;16247;50.840;4.382;2023-11-21T01:35:17;39.72;;;19.88;;
29206;SDS011;16247;50.840;4.382;2023-11-21T01:37:49;40.80;;;21.55;;
29206;SDS011;16247;50.840;4.382;2023-11-21T01:40:20;36.88;;;20.40;;
29206;SDS011;16247;50.840;4.382;2023-11-21T01:42:56;39.75;;;21.83;;
29206;SDS011;16247;50.840;4.382;2023-11-21T01:45:28;43.97;;;21.33;;
29206;SDS011;16247;50.840;4.382;2023-11-21T01:47:59;38.15;;;19.20;;
29206;SDS011;16247;50.840;4.382;2023-11-21T01:50:26;36.33;;;19.08;;
29206;SDS011;16247;50.840;4.382;2023-11-21T01:52:52;35.80;;;18.27;;
29206;SDS011;16247;50.840;4.382;2023-11-21T01:55:18;35.65;;;19.33;;
29206;SDS011;16247;50.840;4.382;2023-11-21T01:57:45;32.75;;;18.50;;
29206;SDS011;16247;50.840;4.382;2023-11-21T02:00:14;33.60;;;19.08;;
29206;SDS011;16247;50.840;4.382;2023-11-21T02:12:22;30.33;;;17.75;;
29206;SDS011;16247;50.840;4.382;2023-11-21T02:14:51;33.97;;;16.65;;
29206;SDS011;16247;50.840;4.382;2023-11-21T02:17:17;36.08;;;17.52;;
29206;SDS011;16247;50.840;4.382;2023-11-21T02:22:16;33.22;;;17.25;;
29206;SDS011;16247;50.840;4.382;2023-11-21T02:24:51;35.22;;;17.42;;
29206;SDS011;16247;50.840;4.382;2023-11-21T02:27:20;30.70;;;16.80;;
29206;SDS011;16247;50.840;4.382;2023-11-21T02:29:48;32.42;;;16.52;;
29206;SDS011;16247;50.840;4.382;2023-11-21T02:32:23;27.95;;;16.42;;
29206;SDS011;16247;50.840;4.382;2023-11-21T02:35:11;29.38;;;15.90;;
29206;SDS011;16247;50.840;4.382;2023-11-21T02:37:37;27.95;;;16.83;;
29206;SDS011;16247;50.840;4.382;2023-11-21T02:40:12;30.45;;;16.33;;
29206;SDS011;16247;50.840;4.382;2023-11-21T02:42:39;32.08;;;17.00;;
29206;SDS011;16247;50.840;4.382;2023-11-21T02:45:12;32.00;;;16.15;;
29206;SDS011;16247;50.840;4.382;2023-11-21T02:47:42;29.45;;;17.25;;
29206;SDS011;16247;50.840;4.382;2023-11-21T02:50:08;34.17;;;17.55;;
29206;SDS011;16247;50.840;4.382;2023-11-21T02:52:37;29.92;;;16.48;;
29206;SDS011;16247;50.840;4.382;2023-11-21T02:55:07;30.17;;;15.45;;
29206;SDS011;16247;50.840;4.382;2023-11-21T02:57:36;34.40;;;16.85;;
29206;SDS011;16247;50.840;4.382;2023-11-21T03:00:03;26.08;;;14.32;;
29206;SDS011;16247;50.840;4.382;2023-11-21T03:02:32;27.50;;;14.75;;
29206;SDS011;16247;50.840;4.382;2023-11-21T03:05:05;28.50;;;14.85;;
29206;SDS011;16247;50.840;4.382;2023-11-21T03:07:38;28.60;;;13.80;;
29206;SDS011;16247;50.840;4.382;2023-11-21T03:10:04;27.35;;;13.70;;
29206;SDS011;16247;50.840;4.382;2023-11-21T03:12:31;27.38;;;14.65;;
29206;SDS011;16247;50.840;4.382;2023-11-21T03:14:57;29.88;;;13.75;;
29206;SDS011;16247;50.840;4.382;2023-11-21T03:17:24;21.50;;;12.15;;
29206;SDS011;16247;50.840;4.382;2023-11-21T03:19:50;20.95;;;11.50;;
29206;SDS011;16247;50.840;4.382;2023-11-21T03:22:17;20.10;;;11.23;;
29206;SDS011;16247;50.840;4.382;2023-11-21T03:24:44;22.42;;;12.07;;
29206;SDS011;16247;50.840;4.382;2023-11-21T03:29:45;18.95;;;9.77;;
29206;SDS011;16247;50.840;4.382;2023-11-21T03:32:13;21.02;;;11.05;;
29206;SDS011;16247;50.840;4.382;2023-11-21T03:35:00;25.40;;;11.48;;
29206;SDS011;16247;50.840;4.382;2023-11-21T03:37:27;22.60;;;10.73;;
29206;SDS011;16247;50.840;4.382;2023-11-21T03:39:53;22.15;;;12.52;;
29206;SDS011;16247;50.840;4.382;2023-11-21T03:42:20;28.63;;;14.20;;
29206;SDS011;16247;50.840;4.382;2023-11-21T03:44:46;32.75;;;15.85;;
29206;SDS011;16247;50.840;4.382;2023-11-21T03:47:11;26.33;;;12.95;;
29206;SDS011;16247;50.840;4.382;2023-11-21T03:49:37;24.88;;;14.55;;
29206;SDS011;16247;50.840;4.382;2023-11-21T03:52:03;29.95;;;15.00;;
29206;SDS011;16247;50.840;4.382;2023-11-21T03:54:30;31.00;;;14.18;;
29206;SDS011;16247;50.840;4.382;2023-11-21T03:56:57;26.85;;;14.63;;
29206;SDS011;16247;50.840;4.382;2023-11-21T03:59:31;29.00;;;16.73;;
29206;SDS011;16247;50.840;4.382;2023-11-21T04:01:58;28.95;;;16.27;;
29206;SDS011;16247;50.840;4.382;2023-11-21T04:06:56;38.88;;;17.92;;
29206;SDS011;16247;50.840;4.382;2023-11-21T04:09:24;31.67;;;17.92;;
29206;SDS011;16247;50.840;4.382;2023-11-21T04:11:50;31.20;;;18.45;;
29206;SDS011;16247;50.840;4.382;2023-11-21T04:14:17;29.83;;;18.05;;
29206;SDS011;16247;50.840;4.382;2023-11-21T04:16:42;31.92;;;17.73;;
29206;SDS011;16247;50.840;4.382;2023-11-21T04:19:08;32.92;;;19.50;;
29206;SDS011;16247;50.840;4.382;2023-11-21T04:21:40;36.17;;;20.02;;
29206;SDS011;16247;50.840;4.382;2023-11-21T04:24:06;33.90;;;20.10;;
29206;SDS011;16247;50.840;4.382;2023-11-21T04:26:33;33.05;;;19.38;;
29206;SDS011;16247;50.840;4.382;2023-11-21T04:29:15;33.65;;;19.02;;
29206;SDS011;16247;50.840;4.382;2023-11-21T04:31:42;35.53;;;20.35;;
29206;SDS011;16247;50.840;4.382;2023-11-21T04:34:08;29.45;;;19.55;;
29206;SDS011;16247;50.840;4.382;2023-11-21T04:36:35;37.10;;;20.75;;
29206;SDS011;16247;50.840;4.382;2023-11-21T04:39:02;37.17;;;21.85;;
29206;SDS011;16247;50.840;4.382;2023-11-21T04:41:28;38.53;;;19.23;;
29206;SDS011;16247;50.840;4.382;2023-11-21T04:43:54;36.50;;;20.92;;
29206;SDS011;16247;50.840;4.382;2023-11-21T04:46:20;39.15;;;21.35;;
29206;SDS011;16247;50.840;4.382;2023-11-21T04:48:47;36.42;;;21.50;;
29206;SDS011;16247;50.840;4.382;2023-11-21T04:51:15;33.63;;;20.17;;
29206;SDS011;16247;50.840;4.382;2023-11-21T04:53:44;37.38;;;21.77;;
29206;SDS011;16247;50.840;4.382;2023-11-21T04:56:11;36.45;;;20.73;;
29206;SDS011;16247;50.840;4.382;2023-11-21T04:58:39;33.60;;;18.73;;
29206;SDS011;16247;50.840;4.382;2023-11-21T05:01:06;37.30;;;20.67;;
29206;SDS011;16247;50.840;4.382;2023-11-21T05:03:38;35.83;;;20.55;;
29206;SDS011;16247;50.840;4.382;2023-11-21T05:06:11;36.83;;;19.95;;
29206;SDS011;16247;50.840;4.382;2023-11-21T05:08:45;33.88;;;20.23;;
29206;SDS011;16247;50.840;4.382;2023-11-21T05:11:36;33.38;;;19.85;;
29206;SDS011;16247;50.840;4.382;2023-11-21T05:14:04;31.15;;;20.42;;
29206;SDS011;16247;50.840;4.382;2023-11-21T05:16:41;34.05;;;19.27;;
29206;SDS011;16247;50.840;4.382;2023-11-21T05:25:09;30.17;;;19.52;;
29206;SDS011;16247;50.840;4.382;2023-11-21T05:30:05;37.05;;;19.35;;
29206;SDS011;16247;50.840;4.382;2023-11-21T05:32:34;31.52;;;19.55;;
29206;SDS011;16247;50.840;4.382;2023-11-21T05:35:02;38.83;;;20.42;;
29206;SDS011;16247;50.840;4.382;2023-11-21T05:39:55;32.20;;;20.17;;
29206;SDS011;16247;50.840;4.382;2023-11-21T05:42:23;33.45;;;20.27;;
29206;SDS011;16247;50.840;4.382;2023-11-21T05:45:05;33.47;;;18.73;;
29206;SDS011;16247;50.840;4.382;2023-11-21T05:47:39;28.55;;;18.73;;
29206;SDS011;16247;50.840;4.382;2023-11-21T05:50:09;29.58;;;18.10;;
29206;SDS011;16247;50.840;4.382;2023-11-21T05:52:37;35.38;;;18.92;;
29206;SDS011;16247;50.840;4.382;2023-11-21T05:55:05;33.42;;;20.63;;
29206;SDS011;16247;50.840;4.382;2023-11-21T05:57:35;35.30;;;20.35;;
29206;SDS011;16247;50.840;4.382;2023-11-21T06:00:07;33.33;;;19.60;;
29206;SDS011;16247;50.840;4.382;2023-11-21T06:02:46;29.55;;;19.50;;
29206;SDS011;16247;50.840;4.382;2023-11-21T06:05:15;34.45;;;19.15;;
29206;SDS011;16247;50.840;4.382;2023-11-21T06:07:42;34.78;;;19.58;;
29206;SDS011;16247;50.840;4.382;2023-11-21T06:10:10;34.10;;;20.10;;
29206;SDS011;16247;50.840;4.382;2023-11-21T06:12:40;31.85;;;19.35;;
29206;SDS011;16247;50.840;4.382;2023-11-21T06:15:07;34.25;;;19.60;;
29206;SDS011;16247;50.840;4.382;2023-11-21T06:17:40;38.50;;;18.75;;
29206;SDS011;16247;50.840;4.382;2023-11-21T06:20:07;33.88;;;20.02;;
29206;SDS011;16247;50.840;4.382;2023-11-21T06:22:37;34.03;;;20.55;;
29206;SDS011;16247;50.840;4.382;2023-11-21T06:25:04;32.00;;;18.92;;
29206;SDS011;16247;50.840;4.382;2023-11-21T06:27:35;41.75;;;20.95;;
29206;SDS011;16247;50.840;4.382;2023-11-21T06:30:12;36.00;;;20.25;;
29206;SDS011;16247;50.840;4.382;2023-11-21T06:32:38;42.20;;;19.75;;
29206;SDS011;16247;50.840;4.382;2023-11-21T06:35:05;38.60;;;22.17;;
29206;SDS011;16247;50.840;4.382;2023-11-21T06:37:34;35.83;;;21.08;;
29206;SDS011;16247;50.840;4.382;2023-11-21T06:40:02;41.57;;;23.27;;
29206;SDS011;16247;50.840;4.382;2023-11-21T06:42:31;36.13;;;19.70;;
29206;SDS011;16247;50.840;4.382;2023-11-21T06:45:00;36.28;;;21.35;;
29206;SDS011;16247;50.840;4.382;2023-11-21T06:47:28;35.25;;;21.20;;
29206;SDS011;16247;50.840;4.382;2023-11-21T06:49:58;33.38;;;21.92;;
29206;SDS011;16247;50.840;4.382;2023-11-21T06:52:26;32.40;;;21.63;;
29206;SDS011;16247;50.840;4.382;2023-11-21T06:54:52;36.50;;;19.58;;
29206;SDS011;16247;50.840;4.382;2023-11-21T06:57:19;32.37;;;18.43;;
29206;SDS011;16247;50.840;4.382;2023-11-21T06:59:51;32.25;;;19.70;;
29206;SDS011;16247;50.840;4.382;2023-11-21T07:02:22;34.83;;;20.17;;
29206;SDS011;16247;50.840;4.382;2023-11-21T07:04:50;30.65;;;18.85;;
29206;SDS011;16247;50.840;4.382;2023-11-21T07:07:18;31.50;;;19.88;;
29206;SDS011;16247;50.840;4.382;2023-11-21T07:09:44;35.08;;;19.90;;
29206;SDS011;16247;50.840;4.382;2023-11-21T07:12:10;36.15;;;19.98;;
29206;SDS011;16247;50.840;4.382;2023-11-21T07:14:37;36.63;;;18.30;;
29206;SDS011;16247;50.840;4.382;2023-11-21T07:17:08;33.38;;;19.55;;
29206;SDS011;16247;50.840;4.382;2023-11-21T07:19:34;35.80;;;19.27;;
29206;SDS011;16247;50.840;4.382;2023-11-21T07:22:00;32.05;;;19.83;;
29206;SDS011;16247;50.840;4.382;2023-11-21T07:24:26;31.92;;;20.33;;
29206;SDS011;16247;50.840;4.382;2023-11-21T07:26:52;34.78;;;19.85;;
29206;SDS011;16247;50.840;4.382;2023-11-21T07:29:23;34.78;;;20.77;;
29206;SDS011;16247;50.840;4.382;2023-11-21T07:31:53;36.47;;;20.67;;
29206;SDS011;16247;50.840;4.382;2023-11-21T07:34:29;35.35;;;21.80;;
29206;SDS011;16247;50.840;4.382;2023-11-21T07:36:57;37.38;;;21.88;;
29206;SDS011;16247;50.840;4.382;2023-11-21T07:39:22;37.25;;;22.02;;
29206;SDS011;16247;50.840;4.382;2023-11-21T07:41:53;37.45;;;22.42;;
29206;SDS011;16247;50.840;4.382;2023-11-21T07:44:19;40.78;;;22.33;;
29206;SDS011;16247;50.840;4.382;2023-11-21T07:46:45;37.65;;;22.10;;
29206;SDS011;16247;50.840;4.382;2023-11-21T07:49:12;39.45;;;22.30;;
29206;SDS011;16247;50.840;4.382;2023-11-21T07:51:41;41.58;;;22.80;;
29206;SDS011;16247;50.840;4.382;2023-11-21T07:54:09;34.75;;;22.92;;
29206;SDS011;16247;50.840;4.382;2023-11-21T07:56:37;42.05;;;22.58;;
29206;SDS011;16247;50.840;4.382;2023-11-21T07:59:02;44.47;;;23.00;;
29206;SDS011;16247;50.840;4.382;2023-11-21T08:01:32;45.47;;;23.38;;
29206;SDS011;16247;50.840;4.382;2023-11-21T08:04:04;39.05;;;23.30;;
29206;SDS011;16247;50.840;4.382;2023-11-21T08:06:32;44.05;;;22.38;;
29206;SDS011;16247;50.840;4.382;2023-11-21T08:08:58;47.90;;;24.55;;
29206;SDS011;16247;50.840;4.382;2023-11-21T08:11:24;42.35;;;22.55;;
29206;SDS011;16247;50.840;4.382;2023-11-21T08:13:55;42.10;;;22.08;;
29206;SDS011;16247;50.840;4.382;2023-11-21T08:16:23;39.22;;;22.48;;
29206;SDS011;16247;50.840;4.382;2023-11-21T08:18:55;43.63;;;24.65;;
29206;SDS011;16247;50.840;4.382;2023-11-21T08:21:22;43.28;;;22.67;;
29206;SDS011;16247;50.840;4.382;2023-11-21T08:23:49;43.78;;;23.23;;
29206;SDS011;16247;50.840;4.382;2023-11-21T08:26:19;43.35;;;23.23;;
29206;SDS011;16247;50.840;4.382;2023-11-21T08:28:47;49.35;;;24.92;;
29206;SDS011;16247;50.840;4.382;2023-11-21T08:31:13;45.13;;;25.37;;
29206;SDS011;16247;50.840;4.382;2023-11-21T08:33:39;45.40;;;23.20;;
29206;SDS011;16247;50.840;4.382;2023-11-21T08:36:08;45.97;;;23.88;;
29206;SDS011;16247;50.840;4.382;2023-11-21T08:41:37;46.03;;;22.30;;
29206;SDS011;16247;50.840;4.382;2023-11-21T08:47:11;51.90;;;24.20;;
29206;SDS011;16247;50.840;4.382;2023-11-21T08:49:42;42.63;;;25.25;;
29206;SDS011;16247;50.840;4.382;2023-11-21T08:52:07;47.65;;;24.65;;
29206;SDS011;16247;50.840;4.382;2023-11-21T08:54:33;56.20;;;24.40;;
29206;SDS011;16247;50.840;4.382;2023-11-21T08:57:00;53.20;;;24.45;;
29206;SDS011;16247;50.840;4.382;2023-11-21T08:59:48;55.30;;;24.40;;
29206;SDS011;16247;50.840;4.382;2023-11-21T09:02:13;45.90;;;24.83;;
29206;SDS011;16247;50.840;4.382;2023-11-21T09:04:45;49.08;;;24.15;;
29206;SDS011;16247;50.840;4.382;2023-11-21T09:07:14;49.47;;;23.13;;
29206;SDS011;16247;50.840;4.382;2023-11-21T09:09:40;55.20;;;26.13;;
29206;SDS011;16247;50.840;4.382;2023-11-21T09:12:07;47.63;;;23.73;;
29206;SDS011;16247;50.840;4.382;2023-11-21T09:14:39;63.08;;;25.13;;
29206;SDS011;16247;50.840;4.382;2023-11-21T09:17:07;47.40;;;25.20;;
29206;SDS011;16247;50.840;4.382;2023-11-21T09:19:38;56.33;;;24.38;;
29206;SDS011;16247;50.840;4.382;2023-11-21T09:22:04;48.60;;;24.92;;
29206;SDS011;16247;50.840;4.382;2023-11-21T09:24:31;60.50;;;27.02;;
29206;SDS011;16247;50.840;4.382;2023-11-21T09:26:59;60.17;;;26.10;;
29206;SDS011;16247;50.840;4.382;2023-11-21T09:29:35;60.42;;;26.05;;
29206;SDS011;16247;50.840;4.382;2023-11-21T09:34:37;58.78;;;24.88;;
29206;SDS011;16247;50.840;4.382;2023-11-21T09:37:14;59.42;;;25.73;;
29206;SDS011;16247;50.840;4.382;2023-11-21T09:42:43;49.58;;;24.05;;
29206;SDS011;16247;50.840;4.382;2023-11-21T09:45:06;52.90;;;24.88;;
29206;SDS011;16247;50.840;4.382;2023-11-21T09:47:37;51.10;;;24.75;;
29206;SDS011;16247;50.840;4.382;2023-11-21T09:52:45;60.40;;;25.55;;
29206;SDS011;16247;50.840;4.382;2023-11-21T09:55:24;52.05;;;24.55;;
29206;SDS011;16247;50.840;4.382;2023-11-21T09:57:53;45.80;;;22.15;;
29206;SDS011;16247;50.840;4.382;2023-11-21T10:00:23;46.77;;;24.10;;
29206;SDS011;16247;50.840;4.382;2023-11-21T10:05:18;46.95;;;21.35;;
29206;SDS011;16247;50.840;4.382;2023-11-21T10:07:49;37.28;;;20.98;;
29206;SDS011;16247;50.840;4.382;2023-11-21T10:10:18;36.58;;;19.42;;
29206;SDS011;16247;50.840;4.382;2023-11-21T10:12:48;36.67;;;19.33;;
29206;SDS011;16247;50.840;4.382;2023-11-21T10:15:23;30.48;;;17.85;;
29206;SDS011;16247;50.840;4.382;2023-11-21T10:17:53;26.33;;;16.40;;
29206;SDS011;16247;50.840;4.382;2023-11-21T10:20:20;25.80;;;15.45;;
29206;SDS011;16247;50.840;4.382;2023-11-21T10:22:47;19.98;;;13.05;;
29206;SDS011;16247;50.840;4.382;2023-11-21T10:25:13;25.65;;;14.45;;
29206;SDS011;16247;50.840;4.382;2023-11-21T10:27:41;26.17;;;15.90;;
29206;SDS011;16247;50.840;4.382;2023-11-21T10:30:07;25.48;;;14.27;;
29206;SDS011;16247;50.840;4.382;2023-11-21T10:32:38;27.00;;;15.20;;
29206;SDS011;16247;50.840;4.382;2023-11-21T10:35:10;27.48;;;16.33;;
29206;SDS011;16247;50.840;4.382;2023-11-21T10:37:37;27.17;;;15.75;;
29206;SDS011;16247;50.840;4.382;2023-11-21T10:40:12;29.85;;;16.73;;
29206;SDS011;16247;50.840;4.382;2023-11-21T10:42:42;25.20;;;15.38;;
29206;SDS011;16247;50.840;4.382;2023-11-21T10:45:09;27.42;;;16.38;;
29206;SDS011;16247;50.840;4.382;2023-11-21T10:47:39;28.05;;;16.20;;
29206;SDS011;16247;50.840;4.382;2023-11-21T10:52:42;26.08;;;14.40;;
29206;SDS011;16247;50.840;4.382;2023-11-21T10:58:11;28.77;;;16.50;;
29206;SDS011;16247;50.840;4.382;2023-11-21T11:00:39;26.30;;;15.73;;
29206;SDS011;16247;50.840;4.382;2023-11-21T11:03:05;28.60;;;17.00;;
29206;SDS011;16247;50.840;4.382;2023-11-21T11:05:37;28.95;;;17.90;;
29206;SDS011;16247;50.840;4.382;2023-11-21T11:08:05;31.50;;;18.90;;
29206;SDS011;16247;50.840;4.382;2023-11-21T11:10:37;34.38;;;19.60;;
29206;SDS011;16247;50.840;4.382;2023-11-21T11:13:11;38.45;;;19.98;;
29206;SDS011;16247;50.840;4.382;2023-11-21T11:21:46;34.55;;;19.40;;
29206;SDS011;16247;50.840;4.382;2023-11-21T11:24:44;33.55;;;18.65;;
29206;SDS011;16247;50.840;4.382;2023-11-21T11:37:05;41.72;;;22.27;;
29206;SDS011;16247;50.840;4.382;2023-11-21T11:42:24;35.60;;;21.20;;
29206;SDS011;16247;50.840;4.382;2023-11-21T11:47:58;41.50;;;23.40;;
29206;SDS011;16247;50.840;4.382;2023-11-21T12:03:00;27.55;;;17.05;;
29206;SDS011;16247;50.840;4.382;2023-11-21T12:05:31;23.33;;;16.50;;
29206;SDS011;16247;50.840;4.382;2023-11-21T12:08:15;23.77;;;14.82;;
29206;SDS011;16247;50.840;4.382;2023-11-21T12:10:55;19.33;;;13.35;;
29206;SDS011;16247;50.840;4.382;2023-11-21T12:13:26;21.73;;;14.20;;
29206;SDS011;16247;50.840;4.382;2023-11-21T12:15:55;20.00;;;12.52;;
29206;SDS011;16247;50.840;4.382;2023-11-21T12:18:21;23.98;;;15.38;;
29206;SDS011;16247;50.840;4.382;2023-11-21T12:20:47;22.58;;;14.30;;
29206;SDS011;16247;50.840;4.382;2023-11-21T12:23:17;21.33;;;13.63;;
29206;SDS011;16247;50.840;4.382;2023-11-21T12:25:43;18.30;;;12.48;;
29206;SDS011;16247;50.840;4.382;2023-11-21T12:28:30;18.95;;;11.98;;
29206;SDS011;16247;50.840;4.382;2023-11-21T13:57:45;19.08;;;10.30;;
29206;SDS011;16247;50.840;4.382;2023-11-21T14:00:17;17.73;;;12.38;;
29206;SDS011;16247;50.840;4.382;2023-11-21T14:06:16;14.20;;;9.23;;
29206;SDS011;16247;50.840;4.382;2023-11-21T14:14:29;10.80;;;7.82;;
29206;SDS011;16247;50.840;4.382;2023-11-21T14:17:18;15.18;;;8.63;;
29206;SDS011;16247;50.840;4.382;2023-11-21T20:00:30;29.90;;;14.93;;
29206;SDS011;16247;50.840;4.382;2023-11-21T20:02:57;26.40;;;13.55;;
29206;SDS011;16247;50.840;4.382;2023-11-21T20:05:36;27.30;;;15.65;;
29206;SDS011;16247;50.840;4.382;2023-11-21T20:08:19;26.50;;;14.38;;
29206;SDS011;16247;50.840;4.382;2023-11-21T20:10:45;28.70;;;13.10;;
29206;SDS011;16247;50.840;4.382;2023-11-21T20:13:11;26.50;;;14.13;;
29206;SDS011;16247;50.840;4.382;2023-11-21T20:15:38;23.98;;;13.32;;
29206;SDS011;16247;50.840;4.382;2023-11-21T20:18:06;24.98;;;12.25;;
29206;SDS011;16247;50.840;4.382;2023-11-21T20:20:32;21.00;;;12.05;;
29206;SDS011;16247;50.840;4.382;2023-11-21T20:23:01;22.65;;;12.10;;
29206;SDS011;16247;50.840;4.382;2023-11-21T20:25:34;25.23;;;14.80;;
29206;SDS011;16247;50.840;4.382;2023-11-21T20:30:44;21.92;;;12.48;;
29206;SDS011;16247;50.840;4.382;2023-11-21T20:43:15;24.73;;;13.43;;
29206;SDS011;16247;50.840;4.382;2023-11-21T20:45:53;20.58;;;12.23;;
29206;SDS011;16247;50.840;4.382;2023-11-21T20:54:54;22.75;;;14.27;;
29206;SDS011;16247;50.840;4.382;2023-11-21T20:57:33;22.63;;;13.70;;
29206;SDS011;16247;50.840;4.382;2023-11-21T21:05:18;22.35;;;13.52;;
29206;SDS011;16247;50.840;4.382;2023-11-21T21:10:52;24.80;;;15.77;;
29206;SDS011;16247;50.840;4.382;2023-11-21T21:13:31;23.00;;;14.57;;
29206;SDS011;16247;50.840;4.382;2023-11-21T21:15:59;22.60;;;15.17;;
29206;SDS011;16247;50.840;4.382;2023-11-21T21:18:25;24.25;;;13.98;;
29206;SDS011;16247;50.840;4.382;2023-11-21T21:20:55;28.58;;;15.52;;
29206;SDS011;16247;50.840;4.382;2023-11-21T21:23:29;25.38;;;15.68;;
29206;SDS011;16247;50.840;4.382;2023-11-21T21:25:56;24.30;;;15.25;;
29206;SDS011;16247;50.840;4.382;2023-11-21T21:28:22;25.45;;;14.65;;
29206;SDS011;16247;50.840;4.382;2023-11-21T21:30:54;25.83;;;16.15;;
29206;SDS011;16247;50.840;4.382;2023-11-21T21:33:22;28.35;;;16.60;;
29206;SDS011;16247;50.840;4.382;2023-11-21T21:35:51;26.08;;;15.77;;
29206;SDS011;16247;50.840;4.382;2023-11-21T21:38:20;27.83;;;16.50;;
29206;SDS011;16247;50.840;4.382;2023-11-21T21:40:47;27.20;;;16.63;;
29206;SDS011;16247;50.840;4.382;2023-11-21T21:43:16;28.20;;;16.73;;
29206;SDS011;16247;50.840;4.382;2023-11-21T21:48:11;29.63;;;16.95;;
29206;SDS011;16247;50.840;4.382;2023-11-21T21:57:01;28.38;;;17.33;;
29206;SDS011;16247;50.840;4.382;2023-11-21T21:59:30;30.45;;;16.98;;
29206;SDS011;16247;50.840;4.382;2023-11-21T22:01:56;29.50;;;17.27;;
29206;SDS011;16247;50.840;4.382;2023-11-21T22:04:22;32.85;;;18.27;;
29206;SDS011;16247;50.840;4.382;2023-11-21T22:06:49;30.77;;;18.80;;
29206;SDS011;16247;50.840;4.382;2023-11-21T22:09:21;29.83;;;17.75;;
29206;SDS011;16247;50.840;4.382;2023-11-21T22:11:51;30.92;;;17.65;;
29206;SDS011;16247;50.840;4.382;2023-11-21T22:14:36;29.20;;;18.20;;
29206;SDS011;16247;50.840;4.382;2023-11-21T22:20:24;28.67;;;17.95;;
29206;SDS011;16247;50.840;4.382;2023-11-21T22:22:52;30.35;;;17.35;;
29206;SDS011;16247;50.840;4.382;2023-11-21T22:25:21;27.88;;;17.50;;
29206;SDS011;16247;50.840;4.382;2023-11-21T22:27:57;28.73;;;18.05;;
29206;SDS011;16247;50.840;4.382;2023-11-21T22:33:00;30.58;;;17.83;;
29206;SDS011;16247;50.840;4.382;2023-11-21T22:35:26;32.53;;;17.98;;
29206;SDS011;16247;50.840;4.382;2023-11-21T22:38:00;29.27;;;17.98;;
29206;SDS011;16247;50.840;4.382;2023-11-21T22:40:27;36.88;;;18.67;;
29206;SDS011;16247;50.840;4.382;2023-11-21T22:42:54;29.35;;;18.60;;
29206;SDS011;16247;50.840;4.382;2023-11-21T22:45:19;30.98;;;18.38;;
29206;SDS011;16247;50.840;4.382;2023-11-21T22:47:49;28.33;;;17.00;;
29206;SDS011;16247;50.840;4.382;2023-11-21T22:50:18;30.63;;;18.52;;
29206;SDS011;16247;50.840;4.382;2023-11-21T22:52:45;33.92;;;17.90;;
29206;SDS011;16247;50.840;4.382;2023-11-21T22:55:16;32.20;;;18.63;;
29206;SDS011;16247;50.840;4.382;2023-11-21T22:57:43;28.73;;;17.23;;
29206;SDS011;16247;50.840;4.382;2023-11-21T23:00:13;32.13;;;19.52;;
29206;SDS011;16247;50.840;4.382;2023-11-21T23:02:55;30.23;;;18.17;;
29206;SDS011;16247;50.840;4.382;2023-11-21T23:05:22;32.85;;;18.67;;
29206;SDS011;16247;50.840;4.382;2023-11-21T23:07:48;32.97;;;18.55;;
29206;SDS011;16247;50.840;4.382;2023-11-21T23:10:14;32.08;;;18.77;;
29206;SDS011;16247;50.840;4.382;2023-11-21T23:12:40;34.08;;;18.35;;
29206;SDS011;16247;50.840;4.382;2023-11-21T23:15:08;36.17;;;17.73;;
29206;SDS011;16247;50.840;4.382;2023-11-21T23:17:35;32.80;;;18.70;;
29206;SDS011;16247;50.840;4.382;2023-11-21T23:20:02;33.97;;;19.05;;
29206;SDS011;16247;50.840;4.382;2023-11-21T23:22:34;31.85;;;17.65;;
29206;SDS011;16247;50.840;4.382;2023-11-21T23:25:02;32.88;;;19.23;;
29206;SDS011;16247;50.840;4.382;2023-11-21T23:27:35;31.63;;;18.55;;
29206;SDS011;16247;50.840;4.382;2023-11-21T23:30:02;33.05;;;18.60;;
29206;SDS011;16247;50.840;4.382;2023-11-21T23:32:30;35.40;;;18.30;;
29206;SDS011;16247;50.840;4.382;2023-11-21T23:34:55;30.98;;;17.80;;
29206;SDS011;16247;50.840;4.382;2023-11-21T23:37:22;33.63;;;18.75;;
29206;SDS011;16247;50.840;4.382;2023-11-21T23:39:49;33.58;;;19.08;;
29206;SDS011;16247;50.840;4.382;2023-11-21T23:42:17;29.60;;;18.52;;
29206;SDS011;16247;50.840;4.382;2023-11-21T23:44:45;34.50;;;19.05;;
29206;SDS011;16247;50.840;4.382;2023-11-21T23:47:11;40.05;;;19.75;;
29206;SDS011;16247;50.840;4.382;2023-11-21T23:49:39;34.00;;;19.52;;
29206;SDS011;16247;50.840;4.382;2023-11-21T23:52:07;35.70;;;19.98;;
29206;SDS011;16247;50.840;4.382;2023-11-21T23:54:33;34.15;;;18.90;;
29206;SDS011;16247;50.840;4.382;2023-11-21T23:57:00;31.33;;;18.15;;
29206;SDS011;16247;50.840;4.382;2023-11-21T23:59:26;35.53;;;18.80;;
